CheckWX is a tool to help pilots better visualize weather data.  It is not intended as a substitute for an official pre-flight weather briefing.

06:01:56 UTC

KBYG METAR
Johnson County Airport
Buffalo, Wyoming, USA
Current

1 hour ago

KBYG 200453Z AUTO 25004KT 10SM CLR M14/M19 A2964 RMK AO2 SLP103 T11391189
Observed
Feb-20 @ 04:53 UTC
Wind
  • 250° at 4 KTS
Visibility
16,093 meters
Flight Rules
VFR
Cloud Levels
  • Clear skies
Temperature
-14°C / 7°F
Dewpoint
-19°C / -2°F
Humidity
66%
Altimeter
29.64" Hg
Pressure
1010.3 hPa
Previous

2 hours ago

KBYG 200353Z AUTO 25004KT 10SM CLR M12/M18 A2966 RMK AO2 SLP111 T11171178
Observed
Feb-20 @ 03:53 UTC
Wind
  • 250° at 4 KTS
Visibility
16,093 meters
Flight Rules
VFR
Cloud Levels
  • Clear skies
Temperature
-12°C / 10°F
Dewpoint
-18°C / -0°F
Humidity
61%
Altimeter
29.66" Hg
Pressure
1011.1 hPa
Previous

3 hours ago

KBYG 200253Z AUTO 28004KT 10SM CLR M13/M18 A2968 RMK AO2 SLP127 T11281178 58008
Observed
Feb-20 @ 02:53 UTC
Wind
  • 280° at 4 KTS
Visibility
16,093 meters
Flight Rules
VFR
Cloud Levels
  • Clear skies
Temperature
-13°C / 9°F
Dewpoint
-18°C / -0°F
Humidity
66%
Altimeter
29.68" Hg
Pressure
1012.7 hPa